Time;durP1;ratioP1;P1;durP2;ratioP2;P2;SDS_P1;SDS_P2;PMS_P1;PMS_P2;Temp;Humidity;BMP_temperature;BMP_pressure;BME280_temperature;BME280_humidity;BME280_pressure;Samples;Min_cycle;Max_cycle;Signal;HPM_P1;HPM_P2
2023/11/15 00:00:55;;;;;;;;;;;12.80;75.10;;;8.41;100.00;95404.59;4994195;28;19909;-49
2023/11/15 00:03:21;;;;;;;;;;;12.80;75.20;;;8.41;100.00;95409.13;4989527;28;19913;-51
2023/11/15 00:05:48;;;;;;;;;;;12.80;75.20;;;8.35;100.00;95418.84;4994591;28;19960;-51
2023/11/15 00:08:14;;;;;;;;;;;12.70;75.10;;;8.36;100.00;95412.47;4994171;28;19909;-48
2023/11/15 00:10:40;;;;;;;;;;;12.80;75.20;;;8.30;100.00;95414.31;4988610;28;19920;-50
2023/11/15 00:13:08;;;;;;;;;;;12.70;75.10;;;8.27;100.00;95417.47;4993787;28;19913;-51
2023/11/15 00:15:34;;;;;;;;;;;12.70;75.10;;;8.26;100.00;95410.56;4988364;28;19921;-50
2023/11/15 00:18:04;;;;;;;;;;;12.70;75.10;;;8.21;100.00;95415.84;4993791;28;19967;-49
2023/11/15 00:20:33;;;;;;;;;;;12.60;74.90;;;8.15;100.00;95411.53;4977006;28;19949;-55
2023/11/15 00:23:01;;;;;;;;;;;12.60;75.00;;;8.15;100.00;95421.34;4974837;28;20433;-50
2023/11/15 00:25:28;;;;;;;;;;;12.50;74.90;;;8.09;100.00;95429.28;4993335;28;19940;-51
2023/11/15 00:27:57;;;;;;;;;;;12.50;74.90;;;8.07;100.00;95423.41;4985936;28;19909;-51
2023/11/15 00:30:23;;;;;;;;;;;12.50;75.00;;;8.03;100.00;95429.47;4992048;28;19909;-50
2023/11/15 00:32:50;;;;;;;;;;;12.50;75.00;;;7.93;100.00;95427.53;4990816;28;19948;-55
2023/11/15 00:35:16;;;;;;;;;;;12.40;75.00;;;7.94;100.00;95428.34;4985398;28;19983;-53
2023/11/15 00:37:43;;;;;;;;;;;12.40;75.00;;;7.96;100.00;95435.00;4993416;28;19918;-52
2023/11/15 00:40:14;;;;;;;;;;;12.40;75.10;;;7.94;100.00;95429.13;4973185;28;20009;-54
2023/11/15 00:42:43;;;;;;;;;;;12.30;75.10;;;7.93;100.00;95432.84;4971715;28;19975;-54
2023/11/15 00:45:11;;;;;;;;;;;12.30;75.10;;;7.95;100.00;95443.97;4975805;28;19910;-54
2023/11/15 00:47:41;;;;;;;;;;;12.30;75.10;;;7.91;100.00;95442.09;4978225;28;19917;-49
2023/11/15 00:50:08;;;;;;;;;;;12.20;75.00;;;7.87;100.00;95444.44;4977239;28;19910;-52
2023/11/15 00:52:34;;;;;;;;;;;12.20;75.10;;;7.84;100.00;95444.94;4972778;28;19910;-49
2023/11/15 00:55:00;;;;;;;;;;;12.20;75.00;;;7.75;100.00;95441.94;4973517;28;19975;-51
2023/11/15 00:57:26;;;;;;;;;;;12.20;75.00;;;7.74;100.00;95437.69;4974383;28;20666;-50
2023/11/15 00:59:54;;;;;;;;;;;12.20;75.00;;;7.73;100.00;95441.38;4974051;28;19913;-52
2023/11/15 01:02:26;;;;;;;;;;;12.20;75.00;;;7.72;100.00;95441.63;4973246;28;20355;-52
2023/11/15 01:04:53;;;;;;;;;;;12.10;75.00;;;7.67;100.00;95438.94;4972833;28;20112;-55
2023/11/15 01:07:19;;;;;;;;;;;12.10;75.00;;;7.69;100.00;95434.97;4973520;28;20424;-51
2023/11/15 01:09:44;;;;;;;;;;;12.10;75.10;;;7.65;100.00;95432.03;4955547;28;19996;-51
2023/11/15 01:12:11;;;;;;;;;;;12.10;75.10;;;7.60;100.00;95442.56;4970930;28;19918;-50
2023/11/15 01:14:36;;;;;;;;;;;12.10;75.10;;;7.60;100.00;95449.72;4955905;28;19914;-54
2023/11/15 01:17:03;;;;;;;;;;;12.10;75.10;;;7.62;100.00;95456.38;4955857;28;19992;-51
2023/11/15 01:19:30;;;;;;;;;;;12.10;75.10;;;7.61;100.00;95462.72;4973232;28;19956;-51
2023/11/15 01:21:57;;;;;;;;;;;12.10;76.00;;;7.60;100.00;95463.78;4972299;28;19916;-49
2023/11/15 01:24:25;;;;;;;;;;;12.10;75.20;;;7.59;100.00;95467.50;4973121;28;20000;-51
2023/11/15 01:26:52;;;;;;;;;;;12.10;75.20;;;7.59;100.00;95472.78;4972527;28;19921;-53
2023/11/15 01:29:18;;;;;;;;;;;12.10;75.30;;;7.66;100.00;95480.53;4972948;28;19910;-49
2023/11/15 01:31:44;;;;;;;;;;;12.10;75.30;;;7.68;100.00;95483.75;4973173;28;19909;-48
2023/11/15 01:34:10;;;;;;;;;;;12.10;75.40;;;7.74;100.00;95497.84;4971589;28;20012;-50
2023/11/15 01:36:36;;;;;;;;;;;12.10;75.40;;;7.74;100.00;95500.50;4972124;28;20052;-51
2023/11/15 01:39:04;;;;;;;;;;;12.10;75.40;;;7.71;100.00;95501.81;5001860;23;19925;-58
2023/11/15 01:41:30;;;;;;;;;;;12.10;75.30;;;7.69;100.00;95497.81;4989260;28;20383;-58
2023/11/15 01:43:55;;;;;;;;;;;12.20;75.70;;;7.70;100.00;95497.56;4992098;28;19954;-58
2023/11/15 01:46:21;;;;;;;;;;;12.20;75.30;;;7.69;100.00;95495.16;4991215;28;19909;-58
2023/11/15 01:48:47;;;;;;;;;;;12.10;75.20;;;7.71;100.00;95490.41;4987623;28;19917;-57
2023/11/15 01:51:14;;;;;;;;;;;12.20;75.30;;;7.70;100.00;95486.16;4971412;28;19914;-58
2023/11/15 01:53:41;;;;;;;;;;;12.20;75.30;;;7.63;100.00;95489.78;4968336;28;19914;-58
2023/11/15 01:56:08;;;;;;;;;;;12.20;75.30;;;7.64;100.00;95480.78;4952471;28;19925;-58
2023/11/15 01:58:35;;;;;;;;;;;12.20;75.30;;;7.61;100.00;95491.88;4967021;28;20320;-57
2023/11/15 02:01:05;;;;;;;;;;;12.20;75.20;;;7.63;100.00;95487.16;4968103;28;20269;-58
2023/11/15 02:03:31;;;;;;;;;;;12.20;75.20;;;7.65;100.00;95490.34;4963576;28;19909;-58
2023/11/15 02:05:59;;;;;;;;;;;12.10;75.10;;;7.65;100.00;95497.50;4972254;28;19909;-58
2023/11/15 02:08:25;;;;;;;;;;;12.10;75.10;;;7.62;100.00;95490.84;4970564;28;20388;-58
2023/11/15 02:10:51;;;;;;;;;;;12.20;75.20;;;7.63;100.00;95494.31;4953494;28;19949;-56
2023/11/15 02:13:23;;;;;;;;;;;12.20;75.10;;;7.67;100.00;95502.56;4972460;28;20000;-57
2023/11/15 02:15:50;;;;;;;;;;;12.20;75.20;;;7.64;100.00;95507.28;4971353;28;19914;-58
2023/11/15 02:18:17;;;;;;;;;;;12.20;75.20;;;7.67;100.00;95503.34;4971886;28;19909;-58
2023/11/15 02:20:43;;;;;;;;;;;12.10;75.10;;;7.64;100.00;95504.63;4972425;28;20051;-57
2023/11/15 02:23:10;;;;;;;;;;;12.10;75.10;;;7.64;100.00;95530.34;4971033;28;19988;-53
2023/11/15 02:25:38;;;;;;;;;;;12.10;75.10;;;7.65;100.00;95524.81;4955112;28;19943;-59
2023/11/15 02:28:05;;;;;;;;;;;12.10;75.10;;;7.59;100.00;95528.47;4973326;28;19917;-58
2023/11/15 02:30:31;;;;;;;;;;;12.00;75.10;;;7.57;100.00;95530.53;4971607;28;19918;-58
2023/11/15 02:32:56;;;;;;;;;;;12.00;75.10;;;7.57;100.00;95529.75;4972982;28;19963;-58
2023/11/15 02:35:22;;;;;;;;;;;12.00;75.20;;;7.50;100.00;95526.50;4972793;28;19928;-58
2023/11/15 02:37:48;;;;;;;;;;;12.00;75.20;;;7.51;100.00;95528.88;4972021;28;20330;-58
2023/11/15 02:40:14;;;;;;;;;;;11.90;75.20;;;7.51;100.00;95531.53;4969945;28;19940;-58
2023/11/15 02:42:40;;;;;;;;;;;11.90;75.30;;;7.53;100.00;95540.03;4972046;28;19917;-58
2023/11/15 02:45:06;;;;;;;;;;;11.90;75.30;;;7.50;100.00;95537.88;4971072;28;19949;-54
2023/11/15 02:47:32;;;;;;;;;;;11.90;75.40;;;7.52;100.00;95541.09;4971508;28;19910;-58
2023/11/15 02:49:58;;;;;;;;;;;11.90;75.50;;;7.49;100.00;95551.38;4967096;28;19924;-57
2023/11/15 02:52:24;;;;;;;;;;;11.90;75.50;;;7.50;100.00;95553.00;4970948;28;20000;-57
2023/11/15 02:54:50;;;;;;;;;;;11.90;75.50;;;7.51;100.00;95554.59;4973117;28;19922;-57
2023/11/15 02:57:16;;;;;;;;;;;11.90;75.50;;;7.53;100.00;95557.81;4971795;28;19917;-56
2023/11/15 02:59:42;;;;;;;;;;;11.90;75.50;;;7.56;100.00;95565.25;4971287;28;19909;-59
2023/11/15 03:02:08;;;;;;;;;;;11.90;75.50;;;7.58;100.00;95571.94;4971528;28;19913;-57
2023/11/15 03:04:33;;;;;;;;;;;11.90;75.50;;;7.55;100.00;95576.91;4957731;28;19964;-58
2023/11/15 03:06:59;;;;;;;;;;;11.90;75.50;;;7.52;100.00;95564.97;4971905;28;19925;-55
2023/11/15 03:09:25;;;;;;;;;;;11.90;75.50;;;7.52;100.00;95572.09;4970350;28;19917;-58
2023/11/15 03:11:51;;;;;;;;;;;11.90;75.50;;;7.51;100.00;95570.50;4971432;28;20064;-58
2023/11/15 03:14:17;;;;;;;;;;;11.90;75.50;;;7.52;100.00;95578.22;4971567;28;19953;-58
2023/11/15 03:16:44;;;;;;;;;;;12.00;75.50;;;7.55;100.00;95580.38;4971789;28;20089;-57
2023/11/15 03:19:10;;;;;;;;;;;12.00;75.50;;;7.58;100.00;95579.06;4971263;28;19913;-54
2023/11/15 03:21:36;;;;;;;;;;;12.00;75.50;;;7.56;100.00;95591.78;4971837;28;20277;-57
2023/11/15 03:24:02;;;;;;;;;;;12.00;75.40;;;7.51;100.00;95592.50;4971583;28;19916;-59
2023/11/15 03:26:27;;;;;;;;;;;12.00;75.40;;;7.49;100.00;95583.19;4971370;28;19956;-57
2023/11/15 03:28:53;;;;;;;;;;;12.00;75.30;;;7.52;100.00;95599.41;4970579;28;19956;-58
2023/11/15 03:31:20;;;;;;;;;;;12.00;75.20;;;7.54;100.00;95610.56;4970796;28;19913;-54
2023/11/15 03:33:47;;;;;;;;;;;11.90;75.20;;;7.51;100.00;95603.09;4970867;28;19910;-58
2023/11/15 03:36:15;;;;;;;;;;;11.90;75.20;;;7.48;100.00;95606.22;4971440;28;20140;-57
2023/11/15 03:38:41;;;;;;;;;;;11.90;75.20;;;7.46;100.00;95604.88;4970439;28;19913;-55
2023/11/15 03:41:07;;;;;;;;;;;11.80;75.20;;;7.47;100.00;95601.19;4970920;28;19991;-55
2023/11/15 03:43:33;;;;;;;;;;;11.80;75.20;;;7.40;100.00;95598.72;4971308;28;19971;-54
2023/11/15 03:45:59;;;;;;;;;;;11.80;75.30;;;7.39;100.00;95618.28;4970383;28;20463;-56
2023/11/15 03:48:27;;;;;;;;;;;11.80;75.30;;;7.41;100.00;95617.00;4971249;28;19910;-54
2023/11/15 03:50:52;;;;;;;;;;;11.80;75.30;;;7.45;100.00;95609.38;4969692;28;19910;-58
2023/11/15 03:53:18;;;;;;;;;;;11.80;75.30;;;7.45;100.00;95613.88;4979198;28;19916;-57
2023/11/15 03:55:44;;;;;;;;;;;11.80;75.30;;;7.41;100.00;95617.00;4971481;28;20004;-58
2023/11/15 03:58:10;;;;;;;;;;;11.80;75.30;;;7.45;100.00;95612.03;4970167;28;19914;-54
2023/11/15 04:00:35;;;;;;;;;;;11.80;75.30;;;7.47;100.00;95612.59;4973615;28;20384;-58
2023/11/15 04:03:02;;;;;;;;;;;11.80;75.30;;;7.47;100.00;95625.03;4975526;28;19914;-58
2023/11/15 04:05:28;;;;;;;;;;;11.80;75.30;;;7.48;100.00;95616.84;4974803;28;19937;-58
2023/11/15 04:07:54;;;;;;;;;;;11.80;75.30;;;7.48;100.00;95627.44;4974624;28;20069;-58
2023/11/15 04:10:21;;;;;;;;;;;11.80;75.30;;;7.47;100.00;95625.84;4975583;28;19967;-57
2023/11/15 04:12:46;;;;;;;;;;;11.80;75.20;;;7.47;100.00;95625.03;4974407;28;19997;-58
2023/11/15 04:15:12;;;;;;;;;;;11.80;75.20;;;7.44;100.00;95630.81;4973308;28;20048;-58
2023/11/15 04:17:39;;;;;;;;;;;11.90;75.30;;;7.43;100.00;95627.38;4974644;28;20344;-57
2023/11/15 04:20:07;;;;;;;;;;;11.80;75.20;;;7.46;100.00;95634.84;4974173;28;20004;-57
2023/11/15 04:22:33;;;;;;;;;;;11.90;75.20;;;7.45;100.00;95641.19;4981624;28;19945;-54
2023/11/15 04:24:59;;;;;;;;;;;11.80;75.20;;;7.45;100.00;95640.38;4974535;28;19913;-58
2023/11/15 04:27:25;;;;;;;;;;;11.90;75.20;;;7.44;100.00;95638.78;4973389;28;19955;-56
2023/11/15 04:29:53;;;;;;;;;;;11.90;75.20;;;7.46;100.00;95634.03;4973352;28;19914;-58
2023/11/15 04:32:19;;;;;;;;;;;11.90;75.20;;;7.44;100.00;95636.94;4974088;28;20004;-58
2023/11/15 04:34:45;;;;;;;;;;;11.90;75.30;;;7.49;100.00;95637.00;4972961;28;19921;-55
2023/11/15 04:37:11;;;;;;;;;;;11.80;75.30;;;7.52;100.00;95641.00;4974029;28;19910;-59
2023/11/15 04:39:37;;;;;;;;;;;11.90;75.30;;;7.50;100.00;95649.22;4977708;28;20359;-58
2023/11/15 04:42:04;;;;;;;;;;;11.90;75.20;;;7.51;100.00;95650.81;4982791;28;19909;-56
2023/11/15 04:44:30;;;;;;;;;;;11.90;75.30;;;7.50;100.00;95651.88;4989585;28;20406;-58
2023/11/15 04:46:56;;;;;;;;;;;11.90;75.20;;;7.49;100.00;95658.22;4988279;28;19909;-58
2023/11/15 04:49:22;;;;;;;;;;;11.90;75.20;;;7.48;100.00;95671.69;4992462;28;19915;-58
2023/11/15 04:51:48;;;;;;;;;;;12.00;75.20;;;7.47;100.00;95680.72;4988060;28;20279;-54
2023/11/15 04:54:13;;;;;;;;;;;11.90;75.10;;;7.47;100.00;95662.94;4993058;28;19910;-54
2023/11/15 04:56:39;;;;;;;;;;;11.90;75.10;;;7.45;100.00;95665.03;4989791;28;19936;-54
2023/11/15 04:59:05;;;;;;;;;;;11.90;75.20;;;7.42;100.00;95665.50;4972127;28;19913;-56
2023/11/15 05:01:31;;;;;;;;;;;11.90;75.10;;;7.34;100.00;95672.03;4993062;28;19909;-56
2023/11/15 05:03:57;;;;;;;;;;;11.80;75.10;;;7.26;100.00;95661.81;4989087;28;19959;-57
2023/11/15 05:06:23;;;;;;;;;;;11.80;75.00;;;7.20;100.00;95657.50;4992872;28;20419;-55
2023/11/15 05:08:49;;;;;;;;;;;11.70;75.00;;;7.27;100.00;95655.50;4973067;28;19909;-52
2023/11/15 05:11:14;;;;;;;;;;;11.70;75.20;;;7.32;100.00;95663.50;4987908;28;19910;-52
2023/11/15 05:13:40;;;;;;;;;;;11.70;75.30;;;7.36;100.00;95671.78;4992975;28;19917;-55
2023/11/15 05:16:07;;;;;;;;;;;11.70;75.30;;;7.38;100.00;95677.66;4988226;28;20411;-53
2023/11/15 05:18:32;;;;;;;;;;;11.70;75.40;;;7.35;100.00;95683.44;4992782;28;19915;-57
2023/11/15 05:20:59;;;;;;;;;;;11.70;75.40;;;7.35;100.00;95696.69;4991033;28;20137;-57
2023/11/15 05:23:25;;;;;;;;;;;11.70;75.40;;;7.35;100.00;95709.94;4992490;28;19910;-56
2023/11/15 05:25:51;;;;;;;;;;;11.70;75.40;;;7.34;100.00;95711.00;4987517;28;20275;-52
2023/11/15 05:28:19;;;;;;;;;;;11.70;75.30;;;7.34;100.00;95708.34;4988783;28;19949;-58
2023/11/15 05:30:45;;;;;;;;;;;11.80;75.30;;;7.32;100.00;95700.59;4991822;28;20264;-56
2023/11/15 05:33:11;;;;;;;;;;;11.80;75.30;;;7.35;100.00;95705.44;4987728;28;19936;-56
2023/11/15 05:35:37;;;;;;;;;;;11.80;75.30;;;7.32;100.00;95703.25;4992597;28;19917;-55
2023/11/15 05:38:02;;;;;;;;;;;11.80;75.20;;;7.33;100.00;95709.34;4992537;28;20356;-58
2023/11/15 05:40:28;;;;;;;;;;;11.80;75.20;;;7.31;100.00;95704.31;4985669;28;20223;-56
2023/11/15 05:42:54;;;;;;;;;;;11.80;75.20;;;7.29;100.00;95717.00;4989320;28;19910;-58
2023/11/15 05:45:20;;;;;;;;;;;11.70;75.10;;;7.29;100.00;95721.50;4988383;28;19960;-58
2023/11/15 05:47:45;;;;;;;;;;;11.80;75.10;;;7.28;100.00;95720.69;4992073;28;20556;-57
2023/11/15 05:50:11;;;;;;;;;;;11.80;75.10;;;7.28;100.00;95718.03;4991242;28;19910;-57
2023/11/15 05:52:38;;;;;;;;;;;11.80;75.10;;;7.26;100.00;95709.53;4991095;28;19913;-52
2023/11/15 05:55:08;;;;;;;;;;;11.80;75.00;;;7.20;100.00;95710.47;4991577;28;19983;-57
2023/11/15 05:57:35;;;;;;;;;;;11.70;75.00;;;7.19;100.00;95717.63;4956478;28;19955;-58
2023/11/15 06:00:05;;;;;;;;;;;11.70;75.00;;;7.24;100.00;95713.44;4991277;28;20552;-57
2023/11/15 06:02:32;;;;;;;;;;;11.70;75.10;;;7.27;100.00;95718.28;4992175;28;20284;-54
2023/11/15 06:04:59;;;;;;;;;;;11.70;75.20;;;7.24;100.00;95726.69;4989863;28;20363;-54
2023/11/15 06:07:25;;;;;;;;;;;11.70;75.30;;;7.27;100.00;95729.69;4991892;28;20012;-55
2023/11/15 06:09:52;;;;;;;;;;;11.70;75.30;;;7.29;100.00;95727.59;4987292;28;19932;-57
2023/11/15 06:12:19;;;;;;;;;;;11.70;75.30;;;7.30;100.00;95739.81;4990192;28;19910;-57
2023/11/15 06:14:47;;;;;;;;;;;11.70;75.30;;;7.27;100.00;95740.28;4990633;28;19960;-56
2023/11/15 06:17:13;;;;;;;;;;;11.70;75.40;;;7.30;100.00;95749.59;4989045;28;20384;-54
2023/11/15 06:19:39;;;;;;;;;;;11.70;75.40;;;7.28;100.00;95755.13;4990087;28;20032;-55
2023/11/15 06:22:05;;;;;;;;;;;11.70;75.30;;;7.31;100.00;95751.22;4987275;28;20367;-57
2023/11/15 06:24:32;;;;;;;;;;;11.80;75.40;;;7.31;100.00;95756.50;4991237;28;19924;-57
2023/11/15 06:26:58;;;;;;;;;;;11.80;75.40;;;7.28;100.00;95743.75;4990343;28;19917;-53
2023/11/15 06:29:24;;;;;;;;;;;11.70;75.20;;;7.29;100.00;95753.28;4990498;28;19910;-57
2023/11/15 06:31:50;;;;;;;;;;;11.80;75.20;;;7.25;100.00;95747.66;4991265;28;20331;-57
2023/11/15 06:34:16;;;;;;;;;;;11.80;75.20;;;7.27;100.00;95744.75;4987675;28;19913;-55
2023/11/15 06:36:44;;;;;;;;;;;11.70;75.20;;;7.26;100.00;95745.81;4973885;28;19913;-56
2023/11/15 06:39:12;;;;;;;;;;;11.80;75.30;;;7.27;100.00;95748.25;4986334;28;19926;-55
2023/11/15 06:41:38;;;;;;;;;;;11.80;75.30;;;7.32;100.00;95753.59;4988866;28;20019;-57
2023/11/15 06:44:09;;;;;;;;;;;11.80;75.30;;;7.32;100.00;95753.59;4988918;28;19931;-57
2023/11/15 06:46:38;;;;;;;;;;;11.80;75.30;;;7.36;100.00;95761.88;4979321;28;19909;-57
2023/11/15 06:49:12;;;;;;;;;;;11.80;75.20;;;7.40;100.00;95770.97;4983623;28;26924;-52
2023/11/15 06:51:46;;;;;;;;;;;11.90;75.20;;;7.46;100.00;95779.78;4978562;28;19984;-52
2023/11/15 06:54:11;;;;;;;;;;;11.90;75.20;;;7.50;100.00;95770.34;4980059;28;19913;-56
2023/11/15 06:56:37;;;;;;;;;;;11.90;75.20;;;7.50;100.00;95783.59;4980740;28;19936;-55
2023/11/15 06:59:03;;;;;;;;;;;12.00;75.20;;;7.51;100.00;95786.00;4984511;28;19909;-58
2023/11/15 07:01:32;;;;;;;;;;;12.00;75.10;;;7.55;100.00;95787.13;4978856;28;20295;-55
2023/11/15 07:03:58;;;;;;;;;;;12.10;75.20;;;7.56;100.00;95799.34;4983704;28;20131;-56
2023/11/15 07:06:28;;;;;;;;;;;12.00;75.10;;;7.57;100.00;95803.59;4990009;28;20347;-59
2023/11/15 07:08:56;;;;;;;;;;;12.10;75.10;;;7.57;100.00;95808.09;4983340;28;20506;-58
2023/11/15 07:11:22;;;;;;;;;;;12.10;75.00;;;7.60;100.00;95805.75;4972917;28;19914;-56
2023/11/15 07:13:48;;;;;;;;;;;12.10;75.00;;;7.61;100.00;95820.63;4977335;28;19924;-57
2023/11/15 07:16:13;;;;;;;;;;;12.10;74.90;;;7.56;100.00;95827.69;4976385;28;19913;-57
2023/11/15 07:18:40;;;;;;;;;;;12.10;74.90;;;7.49;100.00;95817.25;4968176;28;19948;-56
2023/11/15 07:21:07;;;;;;;;;;;12.10;74.80;;;7.40;100.00;95834.59;4978488;28;19940;-57
2023/11/15 07:23:33;;;;;;;;;;;12.00;74.70;;;7.44;100.00;95835.72;4963774;28;19916;-56
2023/11/15 07:25:59;;;;;;;;;;;12.00;74.70;;;7.45;100.00;95831.22;4966250;28;19918;-57
2023/11/15 07:28:25;;;;;;;;;;;11.90;74.70;;;7.45;100.00;95834.66;4970962;28;19917;-55
2023/11/15 07:30:51;;;;;;;;;;;11.90;74.80;;;7.36;100.00;95834.25;4986280;28;19909;-53
2023/11/15 07:33:20;;;;;;;;;;;11.80;74.80;;;7.35;100.00;95834.47;4971743;28;20357;-55
2023/11/15 07:35:48;;;;;;;;;;;11.90;74.80;;;7.32;100.00;95827.81;4984263;28;19921;-54
2023/11/15 07:38:14;;;;;;;;;;;11.80;74.80;;;7.33;100.00;95831.25;4994147;28;19913;-56
2023/11/15 07:40:41;;;;;;;;;;;11.90;74.80;;;7.27;100.00;95818.97;4987584;28;19943;-52
2023/11/15 07:43:10;;;;;;;;;;;11.80;74.60;;;7.32;100.00;95834.97;4981729;28;20137;-55
2023/11/15 07:45:36;;;;;;;;;;;11.80;74.70;;;7.37;100.00;95838.50;4981578;28;20376;-52
2023/11/15 07:48:06;;;;;;;;;;;11.80;74.70;;;7.39;100.00;95847.00;4990688;28;20457;-56
2023/11/15 07:50:33;;;;;;;;;;;11.90;74.70;;;7.35;100.00;95842.44;4991251;28;19909;-56
2023/11/15 07:52:59;;;;;;;;;;;11.90;74.60;;;7.41;100.00;95847.59;4989114;28;19920;-55
2023/11/15 07:55:25;;;;;;;;;;;12.00;74.60;;;7.35;100.00;95845.88;4992852;28;19914;-57
2023/11/15 07:57:51;;;;;;;;;;;12.00;74.50;;;7.35;100.00;95842.44;4989963;28;20283;-55
2023/11/15 08:00:22;;;;;;;;;;;12.00;74.40;;;7.47;100.00;95843.19;4992952;28;19909;-55
2023/11/15 08:02:51;;;;;;;;;;;12.20;74.60;;;7.54;100.00;95851.00;4989271;28;19937;-56
2023/11/15 08:05:18;;;;;;;;;;;12.20;74.60;;;7.59;100.00;95851.09;4992638;28;19917;-55
2023/11/15 08:07:47;;;;;;;;;;;12.30;74.50;;;7.63;100.00;95847.72;4993275;28;19945;-57
2023/11/15 08:10:14;;;;;;;;;;;12.40;74.50;;;7.60;100.00;95864.09;4987368;28;19943;-56
2023/11/15 08:12:45;;;;;;;;;;;12.50;74.40;;;7.66;100.00;95859.69;4991529;28;20080;-56
2023/11/15 08:15:14;;;;;;;;;;;12.60;74.30;;;7.69;100.00;95875.13;4990102;28;19914;-56
2023/11/15 08:17:46;;;;;;;;;;;12.60;74.10;;;7.79;100.00;95887.75;4993086;28;19914;-57
2023/11/15 08:20:16;;;;;;;;;;;12.70;74.40;;;7.87;100.00;95890.03;4992468;28;19909;-57
2023/11/15 08:22:42;;;;;;;;;;;12.70;74.00;;;7.96;100.00;95885.94;4991615;28;19913;-53
2023/11/15 08:25:10;;;;;;;;;;;12.80;74.00;;;8.07;100.00;95886.88;4992646;28;19963;-56
2023/11/15 08:27:38;;;;;;;;;;;12.90;74.10;;;8.08;100.00;95889.31;4982029;28;19932;-57
2023/11/15 08:30:12;;;;;;;;;;;13.00;74.00;;;8.18;100.00;95890.50;4953047;28;19913;-57
2023/11/15 08:32:41;;;;;;;;;;;13.20;74.10;;;8.21;100.00;95890.84;4971176;28;19914;-57
2023/11/15 08:35:10;;;;;;;;;;;13.30;74.00;;;8.34;100.00;95893.16;4982202;28;19940;-54
2023/11/15 08:37:37;;;;;;;;;;;13.40;73.80;;;8.40;100.00;95891.41;4978367;28;20408;-56
2023/11/15 08:40:05;;;;;;;;;;;13.50;73.80;;;8.46;100.00;95890.44;4978214;28;19917;-57
2023/11/15 08:42:31;;;;;;;;;;;13.60;73.60;;;8.56;100.00;95893.25;4978333;28;19914;-55
2023/11/15 08:44:57;;;;;;;;;;;13.70;73.60;;;8.72;100.00;95896.91;4974600;28;19910;-57
2023/11/15 08:47:24;;;;;;;;;;;13.90;73.50;;;8.76;100.00;95900.69;4984000;28;20429;-57
2023/11/15 08:49:53;;;;;;;;;;;14.00;73.30;;;8.92;100.00;95903.53;4979287;28;19924;-56
2023/11/15 08:52:23;;;;;;;;;;;14.20;73.20;;;9.04;100.00;95907.69;4963138;28;19966;-57
2023/11/15 08:54:49;;;;;;;;;;;14.50;73.10;;;9.13;100.00;95902.75;4979644;28;19918;-53
2023/11/15 08:57:15;;;;;;;;;;;14.70;72.80;;;9.23;100.00;95913.50;4976093;28;20295;-56
2023/11/15 08:59:47;;;;;;;;;;;14.90;72.50;;;9.26;100.00;95918.31;4978680;28;19910;-57
2023/11/15 09:02:15;;;;;;;;;;;14.90;72.10;;;9.30;100.00;95921.28;4979994;28;20355;-52
2023/11/15 09:04:42;;;;;;;;;;;15.00;71.90;;;9.27;100.00;95927.94;4978520;28;20319;-57
2023/11/15 09:07:09;;;;;;;;;;;15.00;71.60;;;9.37;100.00;95910.47;4964328;28;20352;-57
2023/11/15 09:09:41;;;;;;;;;;;15.00;71.50;;;9.42;100.00;95910.53;4959900;28;19968;-57
2023/11/15 09:12:08;;;;;;;;;;;15.10;71.20;;;9.42;100.00;95919.31;4961581;28;20442;-56
2023/11/15 09:14:35;;;;;;;;;;;15.10;71.00;;;9.47;100.00;95922.03;4976969;28;19952;-56
2023/11/15 09:17:05;;;;;;;;;;;15.10;70.90;;;9.58;100.00;95909.66;4981132;28;19909;-57
2023/11/15 09:19:35;;;;;;;;;;;15.20;71.00;;;9.58;100.00;95914.16;4982273;28;19916;-56
2023/11/15 09:22:01;;;;;;;;;;;15.20;70.90;;;9.56;100.00;95917.09;4968156;28;20301;-55
2023/11/15 09:24:29;;;;;;;;;;;15.20;70.70;;;9.55;100.00;95909.34;4976590;28;20339;-55
2023/11/15 09:26:58;;;;;;;;;;;15.20;70.70;;;9.48;99.85;95917.53;4982481;28;19917;-55
2023/11/15 09:29:25;;;;;;;;;;;15.20;70.60;;;9.48;100.00;95906.88;4984645;28;19916;-57
2023/11/15 09:31:53;;;;;;;;;;;15.20;70.40;;;9.61;100.00;95913.66;4978277;28;19909;-56
2023/11/15 09:34:20;;;;;;;;;;;15.20;70.60;;;9.61;99.30;95905.69;4975945;28;20008;-55
2023/11/15 09:36:47;;;;;;;;;;;15.20;70.70;;;9.61;99.29;95908.34;4971447;28;20269;-57
2023/11/15 09:39:16;;;;;;;;;;;15.20;70.60;;;9.59;97.66;95908.63;4971383;28;20504;-56
2023/11/15 09:41:53;;;;;;;;;;;15.20;70.60;;;9.54;97.16;95908.53;4966706;28;19920;-57
2023/11/15 09:44:25;;;;;;;;;;;15.30;70.60;;;9.61;97.37;95909.16;4961571;28;19913;-56
2023/11/15 09:46:53;;;;;;;;;;;15.30;70.50;;;9.86;95.94;95905.94;4953769;28;19916;-57
2023/11/15 09:49:23;;;;;;;;;;;15.50;70.60;;;10.15;95.16;95913.63;4968307;28;19920;-56
2023/11/15 09:51:51;;;;;;;;;;;15.90;70.40;;;10.45;91.52;95905.13;4969927;28;19909;-57
2023/11/15 09:54:20;;;;;;;;;;;16.40;70.30;;;10.66;90.24;95924.72;4954241;28;19910;-56
2023/11/15 09:56:49;;;;;;;;;;;16.70;69.70;;;10.84;89.26;95923.50;4953393;28;19918;-56
2023/11/15 09:59:18;;;;;;;;;;;17.00;69.20;;;10.80;86.03;95922.41;4971381;28;19932;-56
2023/11/15 10:01:50;;;;;;;;;;;17.20;69.00;;;10.77;87.67;95923.72;4971670;28;19910;-57
2023/11/15 10:04:25;;;;;;;;;;;17.20;68.10;;;10.80;89.45;95927.75;4977965;28;19914;-55
2023/11/15 10:06:52;;;;;;;;;;;17.20;67.50;;;10.77;86.35;95928.25;4972690;28;19914;-56
2023/11/15 10:09:42;;;;;;;;;;;17.10;67.20;;;10.65;86.95;95928.44;4972701;28;19909;-54
2023/11/15 10:12:10;;;;;;;;;;;16.90;66.80;;;10.49;86.88;95935.50;4969064;28;19961;-57
2023/11/15 10:14:52;;;;;;;;;;;16.80;66.50;;;10.30;88.93;95929.78;4977561;28;19913;-57
2023/11/15 10:17:20;;;;;;;;;;;16.70;66.10;;;10.20;88.64;95932.34;4972799;28;19909;-54
2023/11/15 10:19:46;;;;;;;;;;;16.60;66.00;;;10.09;89.72;95936.78;4974338;28;19913;-55
2023/11/15 10:22:14;;;;;;;;;;;16.50;65.60;;;10.06;91.07;95934.63;4972833;28;19960;-57
2023/11/15 10:24:40;;;;;;;;;;;16.40;65.40;;;9.98;92.08;95936.91;4970185;28;19914;-52
2023/11/15 10:27:10;;;;;;;;;;;16.30;65.30;;;10.02;91.01;95938.00;4969426;28;19967;-54
2023/11/15 10:29:37;;;;;;;;;;;16.20;65.40;;;10.08;93.98;95926.38;4977406;28;19913;-55
2023/11/15 10:32:03;;;;;;;;;;;16.20;65.50;;;10.24;93.89;95933.41;4978895;28;19909;-52
2023/11/15 10:34:31;;;;;;;;;;;16.10;65.60;;;10.23;91.47;95912.38;4970607;28;19971;-54
2023/11/15 10:37:10;;;;;;;;;;;16.20;65.80;;;10.25;91.89;95923.56;4970933;28;20381;-53
2023/11/15 10:39:43;;;;;;;;;;;16.30;65.60;;;10.18;89.82;95916.63;4962559;28;20369;-55
2023/11/15 10:42:14;;;;;;;;;;;16.40;65.30;;;10.09;89.00;95925.31;4970975;28;20049;-53
2023/11/15 10:44:47;;;;;;;;;;;16.60;64.50;;;10.16;88.80;95929.38;4971136;28;19913;-50
2023/11/15 10:47:26;;;;;;;;;;;16.60;64.30;;;10.02;91.34;95930.03;4966256;28;19917;-56
2023/11/15 10:50:13;;;;;;;;;;;16.50;63.60;;;9.85;90.03;95920.31;4967221;28;19914;-56
2023/11/15 10:52:41;;;;;;;;;;;16.30;63.30;;;9.81;90.46;95918.38;4970129;28;20004;-53
2023/11/15 10:55:08;;;;;;;;;;;16.20;62.90;;;10.21;90.61;95925.94;4979745;28;19914;-54
2023/11/15 10:57:36;;;;;;;;;;;16.60;63.40;;;10.51;88.69;95912.09;4968667;28;19910;-53
2023/11/15 11:00:07;;;;;;;;;;;16.90;63.70;;;10.91;87.10;95926.75;4951731;28;20016;-57
2023/11/15 11:02:38;;;;;;;;;;;17.30;64.20;;;10.76;84.10;95935.44;4965254;28;19957;-54
2023/11/15 11:05:04;;;;;;;;;;;17.40;63.30;;;10.34;85.76;95924.75;4967868;28;19920;-54
2023/11/15 11:07:46;;;;;;;;;;;17.50;61.40;;;10.34;86.93;95935.38;4968319;28;19918;-54
2023/11/15 11:10:28;;;;;;;;;;;17.40;60.20;;;10.35;86.06;95927.16;4972484;28;19910;-55
2023/11/15 11:12:56;;;;;;;;;;;17.20;60.20;;;10.36;85.45;95925.31;4981847;28;20623;-57
2023/11/15 11:15:24;;;;;;;;;;;17.20;60.20;;;10.38;84.57;95924.00;4972691;28;19997;-55
2023/11/15 11:18:04;;;;;;;;;;;17.00;59.80;;;10.35;84.83;95921.84;4973261;28;19917;-56